Time;durP1;ratioP1;P1;durP2;ratioP2;P2;SDS_P1;SDS_P2;PMS_P1;PMS_P2;Temp;Humidity;BMP_temperature;BMP_pressure;BME280_temperature;BME280_humidity;BME280_pressure;Samples;Min_cycle;Max_cycle;Signal;HPM_P1;HPM_P2
2022/07/19 00:02:08;;;;;;;3.28;2.28;;;;;;;18.91;55.38;96811.44;5127859;27;20533;-81
2022/07/19 00:04:36;;;;;;;2.80;1.60;;;;;;;18.91;55.13;96808.69;5128273;27;20043;-80
2022/07/19 00:07:03;;;;;;;5.35;1.83;;;;;;;18.88;55.99;96803.88;5127618;27;20058;-80
2022/07/19 00:09:29;;;;;;;3.72;1.83;;;;;;;18.89;56.04;96799.97;5128087;27;20047;-81
2022/07/19 00:11:56;;;;;;;2.47;1.70;;;;;;;18.88;56.04;96792.84;5128193;27;20057;-80
2022/07/19 00:14:23;;;;;;;4.47;1.77;;;;;;;18.83;55.65;96795.88;5127724;27;20047;-78
2022/07/19 00:16:51;;;;;;;3.30;2.03;;;;;;;18.80;55.83;96802.16;5128850;27;20043;-78
2022/07/19 00:19:19;;;;;;;3.63;2.30;;;;;;;18.77;55.26;96803.66;5114511;27;20043;-79
2022/07/19 00:21:45;;;;;;;2.50;1.80;;;;;;;18.74;55.86;96798.03;5115117;27;20047;-79
2022/07/19 00:24:12;;;;;;;2.58;1.70;;;;;;;18.71;55.91;96798.78;5114110;27;20039;-78
2022/07/19 00:26:38;;;;;;;2.60;1.80;;;;;;;18.67;55.83;96797.88;5114523;27;20035;-79
2022/07/19 00:29:05;;;;;;;3.55;1.90;;;;;;;18.60;56.58;96792.19;5114379;27;20044;-79
2022/07/19 00:31:31;;;;;;;2.85;1.83;;;;;;;18.57;56.44;96792.91;5114297;27;20692;-78
2022/07/19 00:33:59;;;;;;;2.63;1.95;;;;;;;18.52;56.56;96797.53;5114433;27;20071;-78
2022/07/19 00:36:26;;;;;;;2.70;1.65;;;;;;;18.49;56.78;96795.50;5114018;27;20051;-79
2022/07/19 00:38:52;;;;;;;2.80;1.83;;;;;;;18.44;57.43;96795.78;5114563;27;20638;-79
2022/07/19 00:41:19;;;;;;;2.92;1.92;;;;;;;18.36;57.29;96799.50;5113544;27;20048;-79
2022/07/19 00:43:47;;;;;;;2.20;1.75;;;;;;;18.32;57.50;96798.63;5114146;27;20044;-79
2022/07/19 00:46:14;;;;;;;3.20;1.67;;;;;;;18.30;58.18;96800.16;5113319;27;20048;-77
2022/07/19 00:48:42;;;;;;;3.20;1.80;;;;;;;18.26;58.67;96798.09;5114092;27;20066;-79
2022/07/19 00:51:10;;;;;;;4.63;2.10;;;;;;;18.23;58.92;96798.81;5113452;27;20050;-79
2022/07/19 00:53:37;;;;;;;4.40;1.90;;;;;;;18.24;59.61;96796.88;5112023;27;20055;-78
2022/07/19 00:56:05;;;;;;;4.13;2.03;;;;;;;18.23;59.83;96795.28;5113561;27;20078;-79
2022/07/19 00:58:32;;;;;;;3.70;2.15;;;;;;;18.15;59.75;96794.28;5113829;27;20039;-81
2022/07/19 01:01:01;;;;;;;4.35;1.90;;;;;;;18.10;60.43;96793.75;5113182;27;20047;-81
2022/07/19 01:03:29;;;;;;;3.92;2.20;;;;;;;18.06;61.25;96801.13;5113282;27;20044;-79
2022/07/19 01:05:56;;;;;;;4.13;1.95;;;;;;;17.96;61.59;96800.53;5113300;27;20055;-79
2022/07/19 01:08:24;;;;;;;3.78;2.03;;;;;;;17.84;61.10;96805.31;5113093;27;20040;-80
2022/07/19 01:10:50;;;;;;;3.38;2.13;;;;;;;17.82;61.88;96800.16;5113332;27;20043;-80
2022/07/19 01:13:17;;;;;;;3.03;2.17;;;;;;;17.84;62.07;96806.09;5112939;27;20392;-79
2022/07/19 01:15:43;;;;;;;3.05;2.20;;;;;;;17.81;62.05;96798.56;5113480;27;20043;-79
2022/07/19 01:18:11;;;;;;;4.03;2.20;;;;;;;17.81;62.27;96801.31;5112795;27;20055;-78
2022/07/19 01:20:37;;;;;;;3.10;2.22;;;;;;;17.83;62.23;96799.00;5113151;27;20490;-79
2022/07/19 01:23:05;;;;;;;3.50;2.20;;;;;;;17.77;62.06;96800.41;5112919;27;20062;-79
2022/07/19 01:25:34;;;;;;;3.78;2.10;;;;;;;17.74;62.33;96801.09;5112875;27;20053;-79
2022/07/19 01:28:00;;;;;;;3.72;1.92;;;;;;;17.60;62.15;96800.72;5113111;27;20051;-79
2022/07/19 01:30:28;;;;;;;3.50;2.20;;;;;;;17.60;61.66;96803.47;5111558;27;20044;-79
2022/07/19 01:32:56;;;;;;;3.58;2.03;;;;;;;17.62;61.50;96792.91;5113180;27;20517;-80
2022/07/19 01:35:22;;;;;;;2.60;1.83;;;;;;;17.63;61.38;96802.75;5112251;27;20043;-78
2022/07/19 01:37:50;;;;;;;3.22;2.10;;;;;;;17.67;61.13;96806.41;5112779;27;20130;-80
2022/07/19 01:40:18;;;;;;;3.47;1.92;;;;;;;17.74;60.82;96801.09;5112186;27;20050;-79
2022/07/19 01:42:47;;;;;;;4.00;2.20;;;;;;;17.71;61.31;96799.03;5112886;27;20387;-79
2022/07/19 01:45:15;;;;;;;2.70;1.90;;;;;;;17.56;61.98;96808.06;5111329;27;20055;-81
2022/07/19 01:47:42;;;;;;;2.40;1.98;;;;;;;17.52;62.30;96809.94;5112622;27;20051;-77
2022/07/19 01:50:11;;;;;;;3.00;2.20;;;;;;;17.50;62.53;96812.25;5110545;27;20047;-82
2022/07/19 01:52:38;;;;;;;4.50;2.20;;;;;;;17.50;63.27;96801.22;5112133;27;20108;-79
2022/07/19 01:55:06;;;;;;;4.75;2.10;;;;;;;17.52;62.74;96804.41;5111713;27;20074;-80
2022/07/19 01:57:34;;;;;;;3.50;2.47;;;;;;;17.47;62.89;96803.50;5112385;27;20051;-80
2022/07/19 02:00:01;;;;;;;4.43;2.47;;;;;;;17.44;62.90;96797.94;5112347;27;20044;-79
2022/07/19 02:02:27;;;;;;;4.85;2.30;;;;;;;17.41;63.69;96798.63;5112294;27;20044;-79
2022/07/19 02:04:54;;;;;;;6.43;2.38;;;;;;;17.42;63.94;96801.00;5112305;27;20044;-79
2022/07/19 02:07:20;;;;;;;4.72;2.28;;;;;;;17.46;63.57;96790.91;5111447;27;20047;-79
2022/07/19 02:09:47;;;;;;;5.03;2.45;;;;;;;17.40;62.66;96797.81;5112125;27;20505;-79
2022/07/19 02:12:13;;;;;;;3.30;2.15;;;;;;;17.47;62.16;96794.47;5111531;27;20063;-79
2022/07/19 02:14:41;;;;;;;3.45;2.35;;;;;;;17.43;62.05;96785.28;5111599;27;20047;-79
2022/07/19 02:17:08;;;;;;;2.80;2.00;;;;;;;17.41;62.50;96782.91;5111625;27;20052;-79
2022/07/19 02:19:34;;;;;;;5.47;2.50;;;;;;;17.31;62.17;96777.09;5111801;27;20402;-79
2022/07/19 02:22:03;;;;;;;4.78;2.47;;;;;;;17.15;61.82;96768.81;5112101;27;20069;-79
2022/07/19 02:24:30;;;;;;;3.22;2.20;;;;;;;17.23;62.79;96767.88;5111285;27;20043;-79
2022/07/19 02:26:56;;;;;;;3.75;2.47;;;;;;;17.21;62.69;96762.69;5111787;27;20042;-79
2022/07/19 02:29:23;;;;;;;3.28;2.38;;;;;;;17.22;62.37;96760.75;5111274;27;20055;-79
2022/07/19 02:31:51;;;;;;;3.65;2.40;;;;;;;17.31;61.72;96761.38;5111784;27;20047;-79
2022/07/19 02:34:17;;;;;;;3.10;2.45;;;;;;;17.26;62.00;96758.09;5111265;27;20047;-79
2022/07/19 02:36:44;;;;;;;5.22;2.47;;;;;;;17.23;62.16;96759.59;5111753;27;20577;-81
2022/07/19 02:39:10;;;;;;;4.40;2.20;;;;;;;17.26;62.25;96750.63;5111130;27;20052;-78
2022/07/19 02:41:37;;;;;;;5.43;2.65;;;;;;;17.24;61.59;96761.22;5111499;27;20062;-79
2022/07/19 02:44:04;;;;;;;5.95;2.92;;;;;;;17.14;61.30;96758.97;5111136;27;20066;-79
2022/07/19 02:46:30;;;;;;;4.28;2.92;;;;;;;17.14;61.42;96759.75;5111624;27;20047;-81
2022/07/19 02:48:58;;;;;;;6.13;2.80;;;;;;;17.20;61.44;96763.84;5111311;27;20119;-80
2022/07/19 02:51:25;;;;;;;3.58;2.70;;;;;;;17.18;62.48;96762.63;5110910;27;20051;-79
2022/07/19 02:53:52;;;;;;;5.63;2.58;;;;;;;17.16;62.36;96767.66;5114147;27;20050;-80
2022/07/19 02:56:19;;;;;;;4.65;2.70;;;;;;;17.10;62.77;96766.31;5131328;27;20039;-79
2022/07/19 02:58:45;;;;;;;4.18;2.88;;;;;;;17.04;62.57;96762.19;5131573;27;20050;-79
2022/07/19 03:01:11;;;;;;;4.55;2.70;;;;;;;16.97;62.64;96768.31;5131319;27;20046;-78
2022/07/19 03:03:47;;;;;;;3.65;2.53;;;;;;;16.93;63.24;96767.41;5131620;27;20051;-78
2022/07/19 03:06:17;;;;;;;5.30;2.30;;;;;;;16.86;64.22;96770.75;5131116;27;20051;-79
2022/07/19 03:08:44;;;;;;;3.80;2.42;;;;;;;16.79;64.13;96767.78;5131531;27;20039;-80
2022/07/19 03:11:13;;;;;;;5.25;2.72;;;;;;;16.73;65.02;96771.13;5131400;27;20043;-79
2022/07/19 03:13:39;;;;;;;4.20;2.50;;;;;;;16.65;65.30;96772.81;5132425;27;20046;-78
2022/07/19 03:16:07;;;;;;;4.78;2.40;;;;;;;16.60;65.45;96764.81;5132461;27;20054;-78
2022/07/19 03:18:33;;;;;;;4.35;2.30;;;;;;;16.55;66.20;96767.78;5132137;27;20039;-79
2022/07/19 03:21:00;;;;;;;5.05;2.42;;;;;;;16.53;66.05;96770.09;5131909;27;20054;-79
2022/07/19 03:23:31;;;;;;;4.32;2.80;;;;;;;16.49;66.04;96758.97;5131221;27;20039;-78
2022/07/19 03:25:58;;;;;;;3.80;2.67;;;;;;;16.50;66.03;96776.31;5090896;27;20052;-79
2022/07/19 03:28:24;;;;;;;6.57;2.67;;;;;;;16.46;65.89;96775.38;5090317;27;20048;-81
2022/07/19 03:30:51;;;;;;;4.78;2.42;;;;;;;16.46;65.77;96778.13;5090840;27;20052;-78
2022/07/19 03:33:17;;;;;;;4.03;2.80;;;;;;;16.44;66.30;96778.47;5090508;27;20052;-79
2022/07/19 03:35:45;;;;;;;3.85;2.67;;;;;;;16.48;66.30;96776.63;5090778;27;20067;-81
2022/07/19 03:38:12;;;;;;;3.83;2.80;;;;;;;16.47;65.84;96777.78;5090701;27;20126;-78
2022/07/19 03:40:40;;;;;;;3.72;2.40;;;;;;;16.44;66.14;96779.28;5090643;27;20036;-79
2022/07/19 03:43:07;;;;;;;3.15;2.38;;;;;;;16.41;66.42;96781.91;5090282;27;20051;-79
2022/07/19 03:45:34;;;;;;;3.97;2.53;;;;;;;16.41;66.67;96784.66;5090687;27;20043;-79
2022/07/19 03:48:01;;;;;;;3.88;2.83;;;;;;;16.38;66.58;96775.16;5090667;27;20048;-79
2022/07/19 03:50:27;;;;;;;6.88;2.88;;;;;;;16.38;66.66;96774.34;5090423;27;20044;-79
2022/07/19 03:52:54;;;;;;;4.35;3.03;;;;;;;16.46;66.67;96776.19;5091374;27;20048;-79
2022/07/19 03:55:21;;;;;;;4.30;2.78;;;;;;;16.50;66.57;96773.56;5125421;27;20051;-79
2022/07/19 03:57:49;;;;;;;3.78;2.85;;;;;;;16.44;65.73;96779.28;5135459;27;20043;-79
2022/07/19 04:00:15;;;;;;;4.15;2.80;;;;;;;16.53;66.13;96770.09;5134841;27;20054;-80
2022/07/19 04:02:43;;;;;;;4.22;2.70;;;;;;;16.58;66.01;96773.41;5135094;27;20034;-79
2022/07/19 04:05:09;;;;;;;4.50;2.78;;;;;;;16.58;65.00;96773.41;5134771;27;20051;-79
2022/07/19 04:07:36;;;;;;;4.57;2.83;;;;;;;16.66;65.56;96779.94;5134917;27;20481;-80
2022/07/19 04:10:03;;;;;;;4.90;2.63;;;;;;;16.70;65.07;96778.06;5135430;27;20043;-79
2022/07/19 04:12:29;;;;;;;4.53;3.17;;;;;;;16.68;64.62;96777.63;5136218;27;20043;-79
2022/07/19 04:14:57;;;;;;;5.25;3.40;;;;;;;16.75;64.48;96772.38;5135506;27;20054;-79
2022/07/19 04:17:24;;;;;;;4.43;2.75;;;;;;;16.79;64.33;96778.78;5134591;27;20038;-80
2022/07/19 04:19:50;;;;;;;3.22;2.45;;;;;;;16.83;63.85;96774.19;5135486;27;20072;-80
2022/07/19 04:22:17;;;;;;;4.13;2.60;;;;;;;16.90;64.36;96776.34;5134594;27;20047;-79
2022/07/19 04:24:44;;;;;;;5.13;2.58;;;;;;;17.00;64.17;96773.09;5133624;27;20057;-78
2022/07/19 04:27:10;;;;;;;5.55;2.63;;;;;;;16.98;63.94;96777.34;5134676;27;20058;-79
2022/07/19 04:29:37;;;;;;;3.25;2.67;;;;;;;16.98;63.76;96777.34;5134723;27;20042;-80
2022/07/19 04:32:06;;;;;;;5.10;2.88;;;;;;;17.00;63.50;96783.31;5134468;27;20043;-80
2022/07/19 04:34:33;;;;;;;5.22;3.33;;;;;;;16.97;63.04;96775.78;5134904;27;20096;-79
2022/07/19 04:36:59;;;;;;;4.38;3.35;;;;;;;16.97;63.85;96778.53;5135216;27;20054;-79
2022/07/19 04:39:26;;;;;;;5.80;3.40;;;;;;;16.92;63.79;96783.09;5133998;27;20050;-79
2022/07/19 04:41:52;;;;;;;5.18;2.90;;;;;;;17.00;63.55;96777.81;5134810;27;20047;-80
2022/07/19 04:44:20;;;;;;;5.78;4.00;;;;;;;17.07;63.83;96783.50;5133546;27;20039;-79
2022/07/19 04:46:46;;;;;;;4.05;3.33;;;;;;;17.12;63.35;96780.50;5134416;27;20043;-79
2022/07/19 04:49:14;;;;;;;6.40;3.20;;;;;;;17.17;63.77;96783.00;5133613;27;20043;-79
2022/07/19 04:51:41;;;;;;;6.80;3.45;;;;;;;17.23;63.55;96787.13;5133906;27;20042;-80
2022/07/19 04:54:08;;;;;;;6.32;3.05;;;;;;;17.28;64.60;96788.81;5126545;27;20048;-80
2022/07/19 04:56:34;;;;;;;8.23;3.50;;;;;;;17.30;63.76;96795.56;5114068;27;20047;-78
2022/07/19 04:59:01;;;;;;;5.03;3.17;;;;;;;17.36;64.51;96790.63;5113975;27;20039;-80
2022/07/19 05:01:28;;;;;;;4.43;3.17;;;;;;;17.40;63.93;96792.31;5114247;27;20046;-79
2022/07/19 05:03:55;;;;;;;4.97;3.70;;;;;;;17.43;64.96;96797.09;5116597;27;20423;-80
2022/07/19 05:06:24;;;;;;;5.25;3.67;;;;;;;17.48;65.01;96798.81;5115614;27;20116;-79
2022/07/19 05:08:51;;;;;;;5.97;3.60;;;;;;;17.53;65.16;96800.50;5116816;27;20040;-80
2022/07/19 05:11:20;;;;;;;9.30;4.00;;;;;;;17.48;64.26;96802.34;5116365;27;20441;-80
2022/07/19 05:13:47;;;;;;;4.53;3.45;;;;;;;17.55;63.34;96792.72;5116818;27;20051;-81
2022/07/19 05:16:14;;;;;;;10.02;4.60;;;;;;;17.55;63.95;96792.72;5115819;27;20070;-78
2022/07/19 05:18:40;;;;;;;5.55;3.75;;;;;;;17.63;63.75;96794.50;5118324;27;20039;-79
2022/07/19 05:21:07;;;;;;;5.15;3.63;;;;;;;17.74;64.18;96792.84;5116940;27;20047;-78
2022/07/19 05:23:35;;;;;;;7.10;4.28;;;;;;;17.76;64.26;96790.56;5116417;27;20051;-79
2022/07/19 05:26:01;;;;;;;6.72;3.85;;;;;;;17.87;64.08;96786.13;5114260;27;20043;-77
2022/07/19 05:28:28;;;;;;;5.78;3.67;;;;;;;17.95;64.23;96787.09;5114383;27;20043;-78
2022/07/19 05:30:54;;;;;;;6.88;4.38;;;;;;;17.94;63.45;96794.56;5114114;27;20044;-79
2022/07/19 05:33:21;;;;;;;8.02;4.65;;;;;;;17.93;63.10;96797.66;5113795;27;20126;-80
2022/07/19 05:35:47;;;;;;;6.53;4.15;;;;;;;18.02;63.18;96792.00;5113668;27;20677;-79
2022/07/19 05:38:14;;;;;;;6.30;4.47;;;;;;;18.09;63.54;96783.88;5112624;27;20055;-80
2022/07/19 05:40:42;;;;;;;6.13;4.30;;;;;;;18.03;63.48;96790.84;5113783;27;20047;-80
2022/07/19 05:43:08;;;;;;;5.82;4.00;;;;;;;18.16;63.44;96795.06;5112797;27;20051;-78
2022/07/19 05:45:35;;;;;;;6.85;4.68;;;;;;;18.23;63.48;96785.03;5113528;27;20537;-78
2022/07/19 05:48:01;;;;;;;8.05;4.68;;;;;;;18.30;63.54;96781.66;5113058;27;20507;-79
2022/07/19 05:50:28;;;;;;;6.53;3.75;;;;;;;18.44;63.72;96779.22;5113262;27;20039;-79
2022/07/19 05:52:55;;;;;;;5.97;4.00;;;;;;;18.57;63.80;96781.88;5112762;27;20502;-79
2022/07/19 05:55:21;;;;;;;6.05;3.72;;;;;;;18.68;63.68;96775.47;5111632;27;20054;-79
2022/07/19 05:57:49;;;;;;;8.73;4.38;;;;;;;18.84;62.74;96775.41;5112705;27;20044;-80
2022/07/19 06:00:16;;;;;;;5.20;3.65;;;;;;;18.86;62.25;96778.63;5112074;27;20055;-80
2022/07/19 06:02:42;;;;;;;8.05;3.55;;;;;;;18.99;62.70;96773.75;5112471;27;20039;-79
2022/07/19 06:05:10;;;;;;;7.45;3.85;;;;;;;19.06;62.78;96781.41;5111883;27;20047;-79
2022/07/19 06:07:37;;;;;;;8.57;3.90;;;;;;;19.15;62.51;96784.72;5112149;27;20084;-79
2022/07/19 06:10:05;;;;;;;9.02;4.55;;;;;;;19.03;61.66;96774.63;5111670;27;20048;-79
2022/07/19 06:12:32;;;;;;;11.20;4.38;;;;;;;19.02;61.93;96776.59;5112373;27;20040;-79
2022/07/19 06:14:59;;;;;;;7.30;4.28;;;;;;;19.17;62.40;96782.41;5112247;27;20048;-79
2022/07/19 06:17:26;;;;;;;6.63;4.05;;;;;;;19.18;61.99;96784.81;5111115;27;20039;-79
2022/07/19 06:19:53;;;;;;;6.32;3.95;;;;;;;19.41;62.16;96770.25;5111985;27;20168;-80
2022/07/19 06:22:19;;;;;;;6.88;3.65;;;;;;;19.40;60.37;96786.03;5111646;27;20044;-80
2022/07/19 06:24:46;;;;;;;8.48;3.63;;;;;;;19.54;60.77;96780.78;5122356;27;20055;-79
2022/07/19 06:27:12;;;;;;;7.10;3.60;;;;;;;19.63;60.32;96788.06;5132083;27;20494;-79
2022/07/19 06:29:39;;;;;;;5.70;3.70;;;;;;;19.69;59.89;96781.88;5132405;27;20150;-79
2022/07/19 06:32:06;;;;;;;8.95;3.78;;;;;;;19.73;59.94;96787.47;5132032;27;20047;-78
2022/07/19 06:34:33;;;;;;;5.32;3.55;;;;;;;19.90;59.87;96787.00;5132278;27;20415;-78
2022/07/19 06:36:59;;;;;;;5.10;3.40;;;;;;;20.00;59.23;96786.38;5138486;27;20136;-78
2022/07/19 06:39:26;;;;;;;7.55;3.33;;;;;;;20.09;58.70;96783.34;5131942;27;20039;-79
2022/07/19 06:41:53;;;;;;;7.45;3.42;;;;;;;20.18;58.32;96785.88;5132464;27;20078;-82
2022/07/19 06:44:19;;;;;;;8.48;3.50;;;;;;;20.22;57.73;96787.53;5131739;27;20047;-79
2022/07/19 06:46:46;;;;;;;8.57;3.40;;;;;;;20.34;58.09;96783.75;5132244;27;20039;-79
2022/07/19 06:49:14;;;;;;;4.07;2.83;;;;;;;20.47;57.83;96779.66;5131798;27;20432;-79
2022/07/19 06:51:41;;;;;;;6.13;3.20;;;;;;;20.59;57.37;96773.91;5132586;27;20452;-79
2022/07/19 06:54:07;;;;;;;4.68;3.35;;;;;;;20.78;57.00;96772.22;5124843;27;20639;-78
2022/07/19 06:56:34;;;;;;;4.57;2.95;;;;;;;20.89;57.28;96781.47;5111646;27;20043;-79
2022/07/19 06:59:00;;;;;;;8.30;3.65;;;;;;;21.05;56.05;96773.75;5111243;27;20039;-79
2022/07/19 07:01:27;;;;;;;5.70;3.00;;;;;;;21.24;55.81;96774.75;5111097;27;20039;-79
2022/07/19 07:03:54;;;;;;;5.18;3.17;;;;;;;21.31;54.40;96769.34;5111705;27;20053;-79
2022/07/19 07:06:22;;;;;;;3.17;2.50;;;;;;;21.44;53.98;96767.13;5110801;27;20059;-79
2022/07/19 07:08:48;;;;;;;5.05;2.70;;;;;;;21.54;53.25;96771.97;5111010;27;20403;-78
2022/07/19 07:11:15;;;;;;;3.47;2.53;;;;;;;21.70;53.94;96768.97;5111315;27;20437;-78
2022/07/19 07:13:41;;;;;;;5.72;2.67;;;;;;;21.80;52.96;96766.31;5111233;27;20044;-78
2022/07/19 07:16:08;;;;;;;4.43;3.00;;;;;;;21.88;52.28;96769.97;5110674;27;20047;-78
2022/07/19 07:18:35;;;;;;;5.53;2.72;;;;;;;22.00;51.77;96772.44;5109677;27;20047;-80
2022/07/19 07:21:01;;;;;;;5.00;2.78;;;;;;;22.16;51.53;96769.44;5110587;27;20058;-77
2022/07/19 07:23:29;;;;;;;5.40;2.50;;;;;;;22.25;51.17;96780.22;5111035;27;20051;-78
2022/07/19 07:25:56;;;;;;;4.90;2.92;;;;;;;22.38;50.95;96765.66;5090763;27;20060;-78
2022/07/19 07:28:22;;;;;;;5.57;2.30;;;;;;;22.56;51.27;96774.13;5092142;27;20449;-78
2022/07/19 07:30:49;;;;;;;4.57;2.72;;;;;;;22.58;49.39;96774.50;5095021;27;20518;-78
2022/07/19 07:33:15;;;;;;;6.15;2.67;;;;;;;22.74;50.58;96770.66;5094500;27;20048;-81
2022/07/19 07:35:42;;;;;;;3.88;2.50;;;;;;;22.85;50.28;96777.84;5095119;27;20445;-82
2022/07/19 07:38:08;;;;;;;4.63;2.58;;;;;;;22.85;49.17;96782.63;5093988;27;20044;-80
2022/07/19 07:40:36;;;;;;;5.20;2.55;;;;;;;22.96;49.00;96777.94;5094722;27;20044;-80
2022/07/19 07:43:03;;;;;;;5.70;2.78;;;;;;;23.10;49.33;96772.47;5094183;27;20044;-79
2022/07/19 07:45:30;;;;;;;4.13;2.65;;;;;;;23.08;47.99;96777.63;5094109;27;20499;-80
2022/07/19 07:47:56;;;;;;;3.78;2.30;;;;;;;23.22;47.76;96767.75;5094167;27;20040;-80
2022/07/19 07:50:23;;;;;;;7.72;2.50;;;;;;;23.33;48.08;96774.13;5092596;27;20044;-80
2022/07/19 07:52:50;;;;;;;3.72;2.60;;;;;;;23.47;47.45;96768.63;5094023;27;20056;-79
2022/07/19 07:55:17;;;;;;;4.55;2.20;;;;;;;23.59;46.61;96765.50;5123815;27;20046;-80
2022/07/19 07:57:44;;;;;;;2.97;2.20;;;;;;;23.82;46.37;96767.19;5134948;27;20046;-78
2022/07/19 08:00:13;;;;;;;4.72;2.55;;;;;;;23.92;46.15;96771.97;5134438;27;20051;-79
2022/07/19 08:02:40;;;;;;;4.75;2.38;;;;;;;24.07;45.40;96770.00;5134485;27;20044;-79
2022/07/19 08:05:08;;;;;;;3.88;2.25;;;;;;;24.20;44.43;96766.41;5134050;27;20070;-77
2022/07/19 08:07:34;;;;;;;5.63;2.50;;;;;;;24.44;43.97;96766.84;5134366;27;20050;-78
2022/07/19 08:10:02;;;;;;;5.47;2.30;;;;;;;24.79;43.83;96767.97;5134386;27;20074;-79
2022/07/19 08:12:28;;;;;;;4.47;2.00;;;;;;;25.44;42.05;96758.25;5134290;27;20054;-78
2022/07/19 08:14:59;;;;;;;4.82;2.00;;;;;;;25.89;39.71;96761.19;5134189;27;20051;-78
2022/07/19 08:17:25;;;;;;;2.45;1.90;;;;;;;26.51;38.98;96751.94;5134240;27;20043;-78
2022/07/19 08:19:52;;;;;;;3.60;2.03;;;;;;;27.03;37.90;96754.63;5134399;27;20078;-79
2022/07/19 08:22:19;;;;;;;5.47;1.75;;;;;;;27.16;37.05;96752.91;5133488;27;20512;-79
2022/07/19 08:24:46;;;;;;;6.00;2.10;;;;;;;27.39;36.90;96748.63;5122496;27;20093;-80
2022/07/19 08:27:12;;;;;;;5.18;2.25;;;;;;;27.66;36.99;96752.25;5113378;27;20063;-80
2022/07/19 08:29:39;;;;;;;2.88;1.90;;;;;;;27.85;36.12;96758.44;5113896;27;20047;-79
2022/07/19 08:32:07;;;;;;;3.95;2.20;;;;;;;27.99;36.08;96755.44;5113091;27;20048;-78
2022/07/19 08:34:34;;;;;;;4.60;2.10;;;;;;;27.93;34.58;96754.28;5113411;27;20043;-79
2022/07/19 08:37:00;;;;;;;2.92;1.88;;;;;;;28.13;37.02;96752.38;5113749;27;20052;-79
2022/07/19 08:39:27;;;;;;;7.13;2.78;;;;;;;28.05;34.69;96762.13;5112656;27;20063;-79
2022/07/19 08:41:53;;;;;;;3.00;1.70;;;;;;;27.97;35.22;96757.84;5113589;27;20036;-78
2022/07/19 08:44:21;;;;;;;2.40;1.98;;;;;;;28.02;34.64;96760.16;5112660;27;20066;-81
2022/07/19 08:46:49;;;;;;;4.43;2.05;;;;;;;27.94;34.61;96762.28;5113307;27;20043;-78
2022/07/19 08:49:17;;;;;;;4.28;1.80;;;;;;;28.09;34.25;96760.06;5112460;27;20044;-79
2022/07/19 08:51:45;;;;;;;4.40;1.90;;;;;;;28.25;33.47;96754.59;5112838;27;20046;-80
2022/07/19 08:54:11;;;;;;;5.53;1.88;;;;;;;28.29;33.90;96760.13;5111717;27;20048;-80
2022/07/19 08:59:23;;;;;;;4.82;2.10;;;;;;;28.37;33.73;96755.25;5112273;27;20132;-79
2022/07/19 09:01:50;;;;;;;3.50;1.80;;;;;;;28.37;33.96;96750.44;5112496;27;20083;-79
2022/07/19 09:04:20;;;;;;;2.13;1.60;;;;;;;28.58;33.46;96757.69;5112049;27;20522;-80
2022/07/19 09:06:49;;;;;;;2.97;1.90;;;;;;;28.42;31.94;96751.97;5112283;27;20047;-79
2022/07/19 09:09:18;;;;;;;2.28;1.58;;;;;;;28.64;32.82;96755.97;5112007;27;20048;-78
2022/07/19 09:11:50;;;;;;;3.25;1.80;;;;;;;28.68;31.87;96747.50;5112378;27;20687;-80
2022/07/19 09:14:18;;;;;;;3.90;1.92;;;;;;;28.83;32.69;96758.03;5111774;27;20059;-80
2022/07/19 09:16:57;;;;;;;3.63;1.88;;;;;;;29.05;32.83;96740.84;5112048;27;20054;-80
2022/07/19 09:19:27;;;;;;;2.58;1.70;;;;;;;28.88;30.86;96739.94;5111805;27;20039;-80
2022/07/19 09:21:55;;;;;;;5.13;2.00;;;;;;;28.87;30.00;96741.16;5112198;27;20048;-80
2022/07/19 09:24:23;;;;;;;3.45;1.58;;;;;;;28.78;30.23;96736.09;5118753;27;20413;-81
2022/07/19 09:26:58;;;;;;;6.70;1.92;;;;;;;28.80;29.98;96728.06;5133118;27;20051;-80
2022/07/19 09:29:25;;;;;;;4.72;1.80;;;;;;;29.01;30.27;96742.91;5131886;27;20071;-79
2022/07/19 09:31:59;;;;;;;5.38;1.75;;;;;;;29.16;31.05;96733.00;5132448;27;20047;-80
2022/07/19 09:34:31;;;;;;;4.53;1.55;;;;;;;29.30;30.63;96727.09;5131855;27;20043;-80
2022/07/19 09:37:19;;;;;;;3.85;1.50;;;;;;;29.38;30.11;96725.72;5132322;27;20042;-79
2022/07/19 09:39:47;;;;;;;3.85;1.50;;;;;;;29.41;29.36;96726.09;5132054;27;20073;-80
2022/07/19 09:42:16;;;;;;;3.90;1.92;;;;;;;29.46;28.73;96734.00;5131689;27;20494;-79
2022/07/19 09:44:44;;;;;;;3.05;1.48;;;;;;;29.38;27.85;96722.91;5132159;27;20485;-79
2022/07/19 09:47:10;;;;;;;3.35;1.30;;;;;;;29.29;28.24;96719.91;5131514;27;20103;-80
2022/07/19 09:49:39;;;;;;;5.28;1.50;;;;;;;29.50;29.71;96715.88;5132010;27;20039;-80
2022/07/19 09:52:05;;;;;;;3.08;1.50;;;;;;;29.64;27.76;96706.34;5130847;27;20038;-80
2022/07/19 09:54:32;;;;;;;2.95;1.60;;;;;;;29.62;27.62;96708.81;5121806;27;20464;-80
2022/07/19 09:57:00;;;;;;;4.80;1.77;;;;;;;29.77;27.73;96709.28;5111462;27;20116;-79
2022/07/19 09:59:27;;;;;;;6.15;1.73;;;;;;;29.71;28.22;96703.41;5110797;27;20042;-79
2022/07/19 10:01:55;;;;;;;2.78;1.50;;;;;;;29.83;28.29;96705.50;5111395;27;20043;-81
2022/07/19 10:04:26;;;;;;;2.38;1.40;;;;;;;29.83;27.24;96696.31;5110612;27;20051;-80
2022/07/19 10:06:55;;;;;;;3.70;1.50;;;;;;;30.01;28.04;96695.88;5110947;27;20039;-80
2022/07/19 10:09:24;;;;;;;4.57;1.50;;;;;;;29.89;26.44;96700.16;5110554;27;20051;-80
2022/07/19 10:11:53;;;;;;;4.68;1.40;;;;;;;29.97;26.52;96700.81;5111312;27;20075;-80
2022/07/19 10:14:19;;;;;;;6.20;1.50;;;;;;;30.04;25.55;96695.00;5110418;27;20071;-80
2022/07/19 10:17:05;;;;;;;3.13;1.48;;;;;;;30.18;26.06;96694.69;5110909;27;20043;-79
2022/07/19 10:19:38;;;;;;;4.07;1.50;;;;;;;30.27;26.24;96685.63;5110767;27;20039;-80
2022/07/19 10:22:07;;;;;;;2.88;1.20;;;;;;;30.22;25.92;96680.53;5110418;27;20043;-80
2022/07/19 10:24:51;;;;;;;3.08;1.30;;;;;;;30.38;25.68;96675.72;5110055;27;20409;-79
2022/07/19 10:27:35;;;;;;;3.65;1.25;;;;;;;30.48;26.28;96676.63;5110101;27;20056;-79
2022/07/19 10:30:20;;;;;;;3.60;1.42;;;;;;;30.62;27.50;96683.91;5110167;27;20040;-78
2022/07/19 10:32:48;;;;;;;2.63;1.42;;;;;;;30.73;26.76;96684.44;5110429;27;20050;-81
2022/07/19 10:35:19;;;;;;;3.13;1.50;;;;;;;30.83;27.00;96685.38;5109917;27;20502;-79
2022/07/19 10:37:49;;;;;;;5.18;1.40;;;;;;;30.85;26.73;96680.91;5110418;27;20452;-79
2022/07/19 10:40:36;;;;;;;2.55;1.40;;;;;;;31.03;27.53;96685.22;5109855;27;20410;-80
2022/07/19 10:43:06;;;;;;;4.18;1.10;;;;;;;30.93;25.63;96675.84;5110021;27;20050;-80
2022/07/19 10:45:34;;;;;;;2.65;1.23;;;;;;;31.05;26.22;96677.91;5110327;27;20084;-80
2022/07/19 10:48:09;;;;;;;4.53;1.40;;;;;;;31.07;26.80;96680.28;5110314;27;20399;-80
2022/07/19 10:50:53;;;;;;;3.03;1.38;;;;;;;31.14;26.02;96680.06;5110010;27;20040;-80
2022/07/19 10:53:59;;;;;;;2.97;1.30;;;;;;;31.04;27.69;96675.56;5109834;27;20044;-80
2022/07/19 10:56:35;;;;;;;2.88;1.30;;;;;;;31.10;26.30;96679.38;5089397;27;20062;-80
2022/07/19 10:59:05;;;;;;;2.10;1.25;;;;;;;31.16;25.11;96669.94;5089787;27;20064;-81
2022/07/19 11:01:33;;;;;;;3.28;1.27;;;;;;;31.28;25.80;96676.88;5089412;27;20040;-79
2022/07/19 11:04:26;;;;;;;4.35;1.40;;;;;;;31.33;24.74;96676.34;5089896;27;20130;-80
2022/07/19 11:07:09;;;;;;;;;;;;;;;31.57;26.46;96657.09;5089796;27;20403;-80
2022/07/19 11:09:42;;;;;;;1.85;1.00;;;;;;;31.47;23.94;96663.06;5089271;27;19924;-79
2022/07/19 11:12:31;;;;;;;4.78;1.40;;;;;;;31.54;23.40;96672.06;5089466;27;20044;-80
2022/07/19 11:14:59;;;;;;;4.85;1.50;;;;;;;31.62;25.91;96659.34;5089504;27;20044;-80
2022/07/19 11:17:26;;;;;;;2.97;1.50;;;;;;;31.54;23.81;96651.59;5089117;27;20438;-81
2022/07/19 11:20:00;;;;;;;3.17;1.40;;;;;;;31.54;22.72;96660.03;5089613;27;20703;-80
2022/07/19 11:22:27;;;;;;;2.20;1.58;;;;;;;31.48;22.98;96659.81;5089173;27;20063;-80
2022/07/19 11:24:54;;;;;;;4.95;2.10;;;;;;;31.49;22.88;96660.59;5113512;27;20525;-80
2022/07/19 11:27:23;;;;;;;3.90;1.73;;;;;;;31.40;21.60;96650.78;5130044;27;22963;-80
2022/07/19 11:29:53;;;;;;;2.83;1.60;;;;;;;31.35;23.39;96656.97;5130436;27;20051;-79
2022/07/19 11:32:20;;;;;;;2.33;1.52;;;;;;;31.35;22.40;96656.97;5130024;27;20089;-80
2022/07/19 11:34:54;;;;;;;5.43;1.90;;;;;;;31.44;22.34;96648.66;5130286;27;20043;-80
2022/07/19 11:37:38;;;;;;;3.78;1.90;;;;;;;31.48;23.90;96647.72;5130232;27;20050;-80
2022/07/19 11:40:07;;;;;;;4.15;2.00;;;;;;;31.43;24.22;96643.47;5120310;27;20039;-80
2022/07/19 11:42:38;;;;;;;5.55;2.38;;;;;;;31.51;23.52;96641.22;5124160;27;20038;-80